Time;durP1;ratioP1;P1;durP2;ratioP2;P2;SDS_P1;SDS_P2;PMS_P1;PMS_P2;Temp;Humidity;BMP_temperature;BMP_pressure;BME280_temperature;BME280_humidity;BME280_pressure;Samples;Min_cycle;Max_cycle;Signal;HPM_P1;HPM_P2
2023/09/05 00:00:17;;;;;;;20.25;18.85;;;17.40;99.90;;;;;;5047972;28;20094;-73
2023/09/05 00:02:48;;;;;;;133.85;30.77;;;17.30;99.90;;;;;;5030155;28;20056;-74
2023/09/05 00:05:17;;;;;;;1999.90;999.90;;;17.40;99.90;;;;;;5017414;28;20048;-73
2023/09/05 00:07:43;;;;;;;167.20;32.25;;;17.40;99.90;;;;;;5042365;28;20515;-73
2023/09/05 00:10:12;;;;;;;20.05;18.85;;;17.40;99.90;;;;;;5044995;28;20129;-74
2023/09/05 00:12:41;;;;;;;20.30;19.10;;;17.30;99.90;;;;;;5032362;28;20048;-73
2023/09/05 00:15:13;;;;;;;19.80;18.50;;;17.30;99.90;;;;;;5034657;28;20056;-74
2023/09/05 00:17:42;;;;;;;20.05;18.75;;;17.30;99.90;;;;;;5050619;28;20094;-72
2023/09/05 00:20:09;;;;;;;19.70;18.40;;;17.20;99.90;;;;;;5053155;28;20049;-72
2023/09/05 00:22:36;;;;;;;20.88;19.27;;;17.10;99.90;;;;;;5054293;28;20121;-72
2023/09/05 00:25:03;;;;;;;19.95;18.75;;;17.10;99.90;;;;;;5052226;28;20510;-72
2023/09/05 00:27:30;;;;;;;19.10;17.98;;;17.10;99.90;;;;;;5063543;28;20051;-74
2023/09/05 00:29:57;;;;;;;20.02;18.80;;;16.90;99.90;;;;;;5051178;28;20082;-72
2023/09/05 00:32:24;;;;;;;20.70;19.27;;;16.90;99.90;;;;;;5048685;28;20051;-72
2023/09/05 00:34:50;;;;;;;20.85;19.33;;;16.80;99.90;;;;;;5052309;28;20040;-74
2023/09/05 00:37:21;;;;;;;19.75;18.30;;;16.80;99.90;;;;;;5036056;28;20048;-72
2023/09/05 00:39:48;;;;;;;20.02;18.63;;;16.70;99.90;;;;;;5045595;28;20985;-73
2023/09/05 00:42:16;;;;;;;20.15;18.85;;;16.60;99.90;;;;;;5051291;28;20059;-71
2023/09/05 00:44:46;;;;;;;20.83;19.08;;;16.70;99.90;;;;;;5034775;28;20044;-74
2023/09/05 00:47:13;;;;;;;20.77;19.15;;;16.70;99.90;;;;;;5036960;28;20052;-73
2023/09/05 00:49:47;;;;;;;20.83;19.10;;;16.60;99.90;;;;;;5054857;28;20491;-73
2023/09/05 00:52:17;;;;;;;20.25;18.85;;;16.60;99.90;;;;;;5047206;28;20075;-73
2023/09/05 00:54:44;;;;;;;19.77;18.38;;;16.50;99.90;;;;;;5038852;28;20071;-73
2023/09/05 00:58:02;;;;;;;19.17;17.88;;;16.40;99.90;;;;;;5032719;28;20052;-73
2023/09/05 01:00:30;;;;;;;18.88;17.67;;;16.40;99.90;;;;;;5017711;28;20235;-74
2023/09/05 01:02:57;;;;;;;18.90;17.80;;;16.40;99.90;;;;;;5044617;28;20044;-74
2023/09/05 01:05:27;;;;;;;20.15;18.85;;;16.40;99.90;;;;;;5058484;28;20058;-73
2023/09/05 01:08:09;;;;;;;20.23;18.55;;;16.40;99.90;;;;;;5050864;28;20045;-73
2023/09/05 01:10:48;;;;;;;19.75;18.13;;;16.50;99.90;;;;;;5043663;28;20048;-74
2023/09/05 01:13:23;;;;;;;20.08;18.67;;;16.60;99.90;;;;;;5057162;28;20044;-73
2023/09/05 01:15:53;;;;;;;20.00;18.77;;;16.60;99.90;;;;;;5021859;28;20045;-73
2023/09/05 01:18:23;;;;;;;19.92;18.63;;;16.60;99.90;;;;;;5059126;28;20049;-74
2023/09/05 01:21:18;;;;;;;19.85;18.60;;;16.60;99.90;;;;;;5051104;28;20056;-73
2023/09/05 01:23:53;;;;;;;20.20;18.90;;;16.60;99.90;;;;;;5036403;28;20220;-73
2023/09/05 01:26:20;;;;;;;;;;;16.60;99.90;;;;;;5044986;28;20128;-74
2023/09/05 01:28:51;;;;;;;19.80;18.60;;;16.60;99.90;;;;;;5037070;28;19996;-74
2023/09/05 01:31:19;;;;;;;19.67;18.25;;;16.70;99.90;;;;;;5055273;28;20049;-73
2023/09/05 01:33:46;;;;;;;19.80;18.40;;;16.70;99.90;;;;;;5017283;28;20140;-73
2023/09/05 01:36:12;;;;;;;20.20;18.60;;;16.80;99.90;;;;;;5038467;28;20111;-73
2023/09/05 01:38:39;;;;;;;19.40;18.20;;;16.90;99.90;;;;;;5033130;28;20052;-73
2023/09/05 01:41:06;;;;;;;20.23;18.75;;;16.90;99.90;;;;;;5051246;28;20044;-73
2023/09/05 01:43:32;;;;;;;19.92;18.45;;;16.90;99.90;;;;;;5042686;28;20076;-73
2023/09/05 01:45:59;;;;;;;19.33;17.90;;;16.90;99.90;;;;;;5049739;28;20049;-73
2023/09/05 01:48:26;;;;;;;19.63;18.42;;;16.90;99.90;;;;;;5028794;28;20044;-73
2023/09/05 01:50:53;;;;;;;20.92;19.20;;;16.90;99.90;;;;;;5056828;28;20048;-72
2023/09/05 01:53:19;;;;;;;19.52;18.13;;;16.90;99.90;;;;;;5055107;28;20561;-74
2023/09/05 01:55:46;;;;;;;19.80;18.50;;;17.00;99.90;;;;;;5042616;28;20129;-72
2023/09/05 01:58:13;;;;;;;21.02;19.13;;;16.90;99.90;;;;;;5030264;28;20065;-73
2023/09/05 02:00:40;;;;;;;19.52;18.23;;;16.90;99.90;;;;;;5036375;28;20052;-73
2023/09/05 02:03:07;;;;;;;19.63;18.35;;;16.90;99.90;;;;;;5037090;28;20044;-72
2023/09/05 02:05:34;;;;;;;19.70;18.50;;;16.90;99.90;;;;;;5043422;28;20048;-72
2023/09/05 02:08:02;;;;;;;19.73;18.42;;;17.00;99.90;;;;;;5037023;28;20155;-71
2023/09/05 02:10:30;;;;;;;19.40;18.20;;;16.90;99.90;;;;;;5031372;28;20045;-73
2023/09/05 02:12:58;;;;;;;20.20;18.90;;;17.00;99.90;;;;;;5033734;28;20052;-73
2023/09/05 02:15:24;;;;;;;19.60;18.10;;;17.00;99.90;;;;;;5040917;28;20157;-74
2023/09/05 02:17:51;;;;;;;19.85;18.58;;;17.00;99.90;;;;;;5037687;28;20052;-71
2023/09/05 02:20:18;;;;;;;19.92;18.52;;;17.00;99.90;;;;;;5029963;28;20392;-72
2023/09/05 02:22:45;;;;;;;19.98;18.58;;;17.00;99.90;;;;;;5020922;28;20040;-72
2023/09/05 02:25:12;;;;;;;20.45;19.05;;;16.90;99.90;;;;;;5029532;28;20045;-71
2023/09/05 02:27:39;;;;;;;19.75;18.45;;;16.90;99.90;;;;;;5018126;28;20098;-72
2023/09/05 02:30:07;;;;;;;19.23;18.02;;;16.90;99.90;;;;;;5049033;28;20040;-72
2023/09/05 02:32:34;;;;;;;19.35;18.15;;;16.90;99.90;;;;;;5019404;28;20040;-74
2023/09/05 02:35:01;;;;;;;19.75;18.55;;;16.80;99.90;;;;;;5054973;28;20129;-74
2023/09/05 02:37:28;;;;;;;20.30;18.90;;;16.80;99.90;;;;;;5053096;28;20039;-72
2023/09/05 02:39:55;;;;;;;20.42;18.83;;;16.90;99.90;;;;;;5048649;28;20051;-72
2023/09/05 02:42:22;;;;;;;19.45;18.17;;;16.90;99.90;;;;;;5051265;28;20424;-71
2023/09/05 02:44:53;;;;;;;20.15;18.50;;;16.90;99.90;;;;;;5038580;28;20040;-76
2023/09/05 02:47:20;;;;;;;19.77;18.50;;;16.90;99.90;;;;;;5044018;28;20040;-73
2023/09/05 02:49:47;;;;;;;20.38;18.98;;;16.90;99.90;;;;;;5040369;28;20102;-73
2023/09/05 02:52:14;;;;;;;19.10;17.90;;;16.90;99.90;;;;;;5060130;28;20100;-74
2023/09/05 02:54:41;;;;;;;19.83;18.52;;;16.90;99.90;;;;;;5038768;28;20097;-73
2023/09/05 02:57:07;;;;;;;19.45;18.15;;;16.80;99.90;;;;;;5042320;28;20134;-73
2023/09/05 02:59:34;;;;;;;19.90;18.52;;;16.90;99.90;;;;;;5053745;28;20099;-73
2023/09/05 03:02:01;;;;;;;20.15;18.73;;;17.00;99.90;;;;;;5051249;28;20047;-73
2023/09/05 03:04:32;;;;;;;20.08;18.42;;;17.00;99.90;;;;;;5050037;28;20060;-74
2023/09/05 03:07:02;;;;;;;19.88;18.40;;;17.10;99.90;;;;;;5044466;28;20037;-73
2023/09/05 03:09:29;;;;;;;20.08;18.48;;;17.00;99.90;;;;;;5045866;28;20081;-73
2023/09/05 03:11:56;;;;;;;19.80;18.48;;;17.00;99.90;;;;;;5055225;28;20056;-74
2023/09/05 03:14:25;;;;;;;20.05;18.75;;;17.10;99.90;;;;;;5022282;28;20056;-73
2023/09/05 03:16:51;;;;;;;20.52;18.88;;;17.10;99.90;;;;;;5049589;28;20054;-73
2023/09/05 03:19:21;;;;;;;19.85;18.55;;;17.10;99.90;;;;;;5023684;28;20094;-72
2023/09/05 03:21:49;;;;;;;19.73;18.30;;;17.00;99.90;;;;;;5029941;28;20132;-74
2023/09/05 03:24:17;;;;;;;19.42;18.17;;;17.00;99.90;;;;;;5047865;28;20045;-74
2023/09/05 03:26:46;;;;;;;20.58;19.08;;;17.00;99.90;;;;;;5034240;28;20044;-74
2023/09/05 03:29:14;;;;;;;20.25;18.85;;;17.00;99.90;;;;;;5028252;28;20056;-73
2023/09/05 03:31:41;;;;;;;20.50;19.20;;;17.00;99.90;;;;;;5042450;28;20055;-73
2023/09/05 03:34:09;;;;;;;20.48;18.92;;;17.00;99.90;;;;;;5055137;28;20686;-73
2023/09/05 03:36:36;;;;;;;20.35;19.05;;;17.00;99.90;;;;;;5006242;28;20136;-73
2023/09/05 03:39:03;;;;;;;20.20;18.77;;;17.00;99.90;;;;;;5044356;28;20138;-73
2023/09/05 03:41:30;;;;;;;19.85;18.48;;;17.00;99.90;;;;;;5047342;28;20045;-73
2023/09/05 03:43:57;;;;;;;19.60;18.40;;;17.00;99.90;;;;;;5047903;28;20641;-73
2023/09/05 03:46:24;;;;;;;18.98;17.88;;;17.00;99.90;;;;;;5059378;28;20049;-72
2023/09/05 03:48:53;;;;;;;20.08;18.77;;;17.00;99.90;;;;;;5046438;28;20046;-72
2023/09/05 03:51:20;;;;;;;19.70;18.30;;;17.00;99.90;;;;;;5068545;28;20029;-73
2023/09/05 03:53:46;;;;;;;19.80;18.60;;;17.00;99.90;;;;;;5056884;28;20043;-73
2023/09/05 03:56:14;;;;;;;20.27;18.98;;;17.00;99.90;;;;;;5054948;28;20128;-73
2023/09/05 03:58:40;;;;;;;20.38;18.77;;;17.00;99.90;;;;;;5005680;28;20126;-73
2023/09/05 04:01:14;;;;;;;20.48;19.17;;;17.00;99.90;;;;;;5042146;28;20074;-73
2023/09/05 04:03:41;;;;;;;20.25;18.92;;;17.00;99.90;;;;;;5051425;28;20122;-73
2023/09/05 04:06:08;;;;;;;20.63;19.10;;;17.00;99.90;;;;;;5057185;28;20044;-73
2023/09/05 04:08:35;;;;;;;20.20;18.80;;;16.90;99.90;;;;;;5053362;28;21313;-73
2023/09/05 04:11:02;;;;;;;20.52;19.17;;;16.90;99.90;;;;;;5060867;28;20802;-73
2023/09/05 04:13:30;;;;;;;20.88;19.38;;;16.80;99.90;;;;;;5051107;28;20071;-73
2023/09/05 04:16:04;;;;;;;21.52;20.02;;;16.70;99.90;;;;;;5015030;28;20537;-73
2023/09/05 04:18:31;;;;;;;21.40;19.90;;;16.70;99.90;;;;;;5053697;28;20045;-73
2023/09/05 04:20:58;;;;;;;21.13;19.70;;;16.70;99.90;;;;;;5054805;28;20296;-73
2023/09/05 04:23:25;;;;;;;21.08;19.60;;;16.60;99.90;;;;;;5025929;28;20080;-73
2023/09/05 04:26:00;;;;;;;21.40;19.80;;;16.60;99.90;;;;;;5031438;28;20053;-74
2023/09/05 04:28:28;;;;;;;20.95;19.55;;;16.50;99.90;;;;;;5031592;28;20060;-73
2023/09/05 04:30:56;;;;;;;21.33;19.90;;;16.50;99.90;;;;;;5022959;28;20271;-72
2023/09/05 04:33:25;;;;;;;21.98;20.27;;;16.40;99.90;;;;;;5036453;28;20053;-72
2023/09/05 04:35:53;;;;;;;23.90;22.27;;;16.40;99.90;;;;;;5014622;28;20071;-73
2023/09/05 04:38:21;;;;;;;20.67;19.27;;;16.30;99.90;;;;;;5052098;28;20541;-72
2023/09/05 04:40:48;;;;;;;22.02;20.33;;;16.40;99.90;;;;;;5054082;28;20045;-71
2023/09/05 04:43:15;;;;;;;21.77;19.92;;;16.40;99.90;;;;;;5045677;28;20053;-72
2023/09/05 04:45:41;;;;;;;20.88;19.40;;;16.50;99.90;;;;;;5048871;28;20068;-71
2023/09/05 04:48:09;;;;;;;20.55;19.25;;;16.40;99.90;;;;;;5041939;28;20613;-72
2023/09/05 04:50:35;;;;;;;21.02;19.40;;;16.40;99.90;;;;;;5034428;28;20047;-72
2023/09/05 04:53:02;;;;;;;20.42;19.02;;;16.40;99.90;;;;;;5048015;28;20771;-73
2023/09/05 04:55:29;;;;;;;20.98;19.38;;;16.30;99.90;;;;;;5046155;28;21653;-72
2023/09/05 04:57:56;;;;;;;21.10;19.42;;;16.30;99.90;;;;;;5033017;28;20111;-72
2023/09/05 05:00:25;;;;;;;21.15;19.55;;;16.40;99.90;;;;;;5042356;28;20041;-72
2023/09/05 05:02:52;;;;;;;20.60;19.40;;;16.40;99.90;;;;;;5044221;28;20048;-72
2023/09/05 05:05:19;;;;;;;19.95;18.75;;;16.50;99.90;;;;;;5041361;28;20055;-72
2023/09/05 05:07:46;;;;;;;23.38;21.77;;;16.50;99.90;;;;;;5044006;28;20033;-72
2023/09/05 05:10:13;;;;;;;24.40;22.90;;;16.50;99.90;;;;;;5052482;28;20105;-71
2023/09/05 05:12:40;;;;;;;24.63;23.23;;;16.50;99.90;;;;;;5037926;28;20037;-71
2023/09/05 05:15:08;;;;;;;24.73;22.80;;;16.40;99.90;;;;;;5023674;28;20125;-72
2023/09/05 05:17:36;;;;;;;25.13;23.50;;;16.40;99.90;;;;;;5051775;28;20072;-74
2023/09/05 05:20:05;;;;;;;24.38;22.77;;;16.40;99.90;;;;;;5045989;28;20564;-72
2023/09/05 05:22:32;;;;;;;24.38;22.45;;;16.40;99.90;;;;;;5051636;28;20136;-72
2023/09/05 05:24:59;;;;;;;24.75;23.20;;;16.40;99.90;;;;;;5048137;28;20042;-73
2023/09/05 05:27:26;;;;;;;24.50;22.88;;;16.50;99.90;;;;;;5034266;28;20048;-73
2023/09/05 05:29:53;;;;;;;24.13;22.50;;;16.60;99.90;;;;;;5031809;28;20055;-72
2023/09/05 05:32:20;;;;;;;24.38;22.73;;;16.60;99.90;;;;;;5027812;28;20044;-72
2023/09/05 05:34:48;;;;;;;25.40;23.30;;;16.70;99.90;;;;;;5022781;28;20110;-71
2023/09/05 05:37:16;;;;;;;24.65;22.80;;;16.70;99.90;;;;;;5037424;28;20513;-72
2023/09/05 05:39:43;;;;;;;24.55;23.15;;;16.70;99.90;;;;;;5031802;28;20063;-74
2023/09/05 05:42:11;;;;;;;23.75;22.30;;;16.70;99.90;;;;;;5045075;28;20734;-71
2023/09/05 05:44:39;;;;;;;23.38;21.88;;;16.70;99.90;;;;;;5048570;28;20040;-74
2023/09/05 05:47:06;;;;;;;23.10;21.67;;;16.80;99.90;;;;;;5049249;28;20439;-74
2023/09/05 05:49:33;;;;;;;23.77;22.13;;;16.80;99.90;;;;;;5011329;28;20055;-74
2023/09/05 05:52:00;;;;;;;23.27;21.88;;;16.80;99.90;;;;;;5039294;28;20036;-73
2023/09/05 05:54:27;;;;;;;23.23;21.73;;;16.80;99.90;;;;;;5031445;28;20423;-73
2023/09/05 05:56:55;;;;;;;23.05;21.65;;;16.90;99.90;;;;;;5045951;28;20083;-73
2023/09/05 05:59:23;;;;;;;23.23;21.73;;;16.90;99.90;;;;;;5044049;28;20037;-72
2023/09/05 06:01:52;;;;;;;22.63;21.33;;;17.00;99.90;;;;;;5047326;28;20722;-72
2023/09/05 06:04:19;;;;;;;23.00;21.48;;;17.00;99.90;;;;;;5027860;28;20043;-73
2023/09/05 06:06:48;;;;;;;23.30;21.90;;;17.00;99.90;;;;;;5044975;28;20040;-71
2023/09/05 06:09:18;;;;;;;23.55;21.90;;;17.00;99.90;;;;;;5043246;28;20133;-73
2023/09/05 06:11:46;;;;;;;22.70;21.38;;;17.00;99.90;;;;;;5030907;28;20573;-73
2023/09/05 06:14:16;;;;;;;23.05;21.58;;;17.00;99.90;;;;;;5041985;28;20072;-72
2023/09/05 06:16:48;;;;;;;24.00;22.50;;;17.10;99.90;;;;;;5046443;28;20181;-72
2023/09/05 06:19:17;;;;;;;23.27;21.92;;;17.10;99.90;;;;;;5026846;28;20048;-72
2023/09/05 06:21:46;;;;;;;23.25;21.75;;;17.20;99.90;;;;;;5044804;28;20060;-73
2023/09/05 06:24:13;;;;;;;23.33;22.02;;;17.30;99.90;;;;;;5046068;28;20049;-73
2023/09/05 06:26:41;;;;;;;23.48;21.95;;;17.20;99.90;;;;;;5016236;28;20044;-71
2023/09/05 06:29:08;;;;;;;23.65;21.80;;;17.30;99.90;;;;;;5043274;28;20894;-72
2023/09/05 06:31:35;;;;;;;22.10;20.65;;;17.30;99.90;;;;;;5046785;28;20055;-72
2023/09/05 06:34:02;;;;;;;23.20;21.55;;;17.40;99.90;;;;;;5045086;28;20399;-72
2023/09/05 06:36:29;;;;;;;21.88;20.48;;;17.50;99.90;;;;;;5026409;28;20135;-71
2023/09/05 06:38:55;;;;;;;22.52;20.75;;;17.50;99.90;;;;;;5023966;28;20056;-72
2023/09/05 06:41:22;;;;;;;22.95;21.30;;;17.50;99.90;;;;;;5048401;28;20048;-72
2023/09/05 06:43:50;;;;;;;22.55;20.95;;;17.60;99.90;;;;;;5043510;28;20052;-72
2023/09/05 06:46:16;;;;;;;22.35;20.90;;;17.70;99.90;;;;;;5031966;28;20049;-71
2023/09/05 06:48:46;;;;;;;22.25;20.67;;;17.80;99.90;;;;;;5046032;28;20044;-73
2023/09/05 06:51:12;;;;;;;21.70;20.17;;;17.80;99.90;;;;;;5040596;28;20037;-72
2023/09/05 06:53:40;;;;;;;22.73;21.02;;;17.90;99.90;;;;;;5027217;28;20037;-75
2023/09/05 06:56:08;;;;;;;22.58;21.08;;;18.00;99.90;;;;;;5020561;28;20106;-75
2023/09/05 06:58:35;;;;;;;22.90;21.30;;;18.00;99.90;;;;;;5042864;28;20043;-76
2023/09/05 07:01:05;;;;;;;21.73;20.10;;;18.10;99.90;;;;;;5029771;28;20044;-76
2023/09/05 07:03:32;;;;;;;22.25;20.65;;;18.20;99.90;;;;;;5045139;28;20044;-77
2023/09/05 07:06:02;;;;;;;22.05;20.55;;;18.50;99.90;;;;;;5029160;28;20043;-77
2023/09/05 07:08:33;;;;;;;22.40;20.83;;;18.80;99.90;;;;;;5036084;28;20131;-77
2023/09/05 07:11:00;;;;;;;22.17;20.65;;;19.00;99.90;;;;;;5042792;28;20533;-78
2023/09/05 07:13:27;;;;;;;22.35;20.80;;;19.10;99.90;;;;;;5048652;28;20487;-77
2023/09/05 07:15:56;;;;;;;23.00;21.30;;;19.60;99.90;;;;;;5039183;28;20043;-78
2023/09/05 07:18:24;;;;;;;22.80;21.23;;;19.70;99.90;;;;;;5046258;28;20049;-77
2023/09/05 07:20:51;;;;;;;22.83;21.33;;;19.60;99.90;;;;;;5044618;28;20398;-77
2023/09/05 07:23:18;;;;;;;22.88;21.17;;;19.60;99.90;;;;;;5032929;28;20048;-77
2023/09/05 07:25:45;;;;;;;23.35;21.73;;;19.90;99.90;;;;;;5007598;28;20575;-77
2023/09/05 07:28:11;;;;;;;23.20;21.60;;;20.00;99.90;;;;;;5039135;28;20055;-77
2023/09/05 07:30:39;;;;;;;23.08;21.35;;;20.10;99.90;;;;;;5049460;28;20044;-77
2023/09/05 07:33:06;;;;;;;23.05;21.60;;;20.10;99.90;;;;;;5043976;28;20047;-77
2023/09/05 07:35:33;;;;;;;23.10;21.60;;;20.30;99.90;;;;;;5046746;28;20040;-75
2023/09/05 07:38:00;;;;;;;22.33;21.02;;;20.30;99.90;;;;;;5044137;28;20044;-74
2023/09/05 07:40:27;;;;;;;23.60;21.80;;;20.40;99.90;;;;;;5045753;28;20040;-77
2023/09/05 07:42:53;;;;;;;23.67;22.02;;;20.60;99.90;;;;;;5042022;28;21039;-77
2023/09/05 07:45:24;;;;;;;23.60;22.10;;;20.80;99.90;;;;;;5047004;28;21907;-77
2023/09/05 07:47:51;;;;;;;27.55;25.95;;;21.00;99.90;;;;;;5043967;28;20041;-76
2023/09/05 07:50:19;;;;;;;27.92;26.20;;;20.90;99.90;;;;;;5041158;28;20094;-77
2023/09/05 07:52:46;;;;;;;28.38;26.67;;;21.00;99.90;;;;;;5049507;28;20272;-75
2023/09/05 07:55:12;;;;;;;28.27;26.58;;;21.30;99.90;;;;;;5051238;28;20048;-77
2023/09/05 07:57:39;;;;;;;28.27;26.48;;;21.40;99.90;;;;;;5035421;28;20040;-77
2023/09/05 08:00:14;;;;;;;29.42;27.58;;;21.60;99.90;;;;;;5042406;28;20071;-76
2023/09/05 08:02:42;;;;;;;28.90;27.20;;;21.60;99.90;;;;;;5049046;28;20055;-77
2023/09/05 08:05:09;;;;;;;28.92;27.13;;;21.60;99.90;;;;;;5037788;28;20131;-77
2023/09/05 08:07:37;;;;;;;29.73;27.92;;;21.70;99.90;;;;;;5028759;28;20059;-76
2023/09/05 08:10:07;;;;;;;30.60;28.67;;;21.90;99.90;;;;;;5050061;28;20041;-77
2023/09/05 08:12:34;;;;;;;31.40;29.45;;;21.90;99.90;;;;;;5043735;28;20575;-77
2023/09/05 08:15:01;;;;;;;31.77;29.88;;;22.00;99.90;;;;;;5046039;28;20041;-77
2023/09/05 08:17:30;;;;;;;31.33;29.52;;;22.20;99.90;;;;;;5038797;28;20210;-77
2023/09/05 08:19:58;;;;;;;31.92;30.02;;;22.10;99.90;;;;;;5063230;28;20078;-76
2023/09/05 08:22:25;;;;;;;31.90;29.83;;;22.30;99.90;;;;;;5078487;28;20048;-76
2023/09/05 08:24:52;;;;;;;31.63;29.73;;;22.50;99.90;;;;;;5054525;28;20045;-76
2023/09/05 08:27:19;;;;;;;32.45;30.17;;;22.70;99.90;;;;;;5032683;28;20071;-77
2023/09/05 08:29:46;;;;;;;31.33;29.52;;;22.50;99.90;;;;;;5043921;28;20135;-77
2023/09/05 08:32:15;;;;;;;32.13;30.17;;;22.70;99.90;;;;;;5030176;28;21649;-76
2023/09/05 08:34:42;;;;;;;31.75;29.88;;;22.50;99.90;;;;;;5044789;28;20051;-77
2023/09/05 08:37:08;;;;;;;31.98;29.98;;;22.50;99.90;;;;;;5042226;28;20106;-78
2023/09/05 08:39:36;;;;;;;31.80;30.00;;;22.60;99.90;;;;;;5020447;28;20123;-77
2023/09/05 08:42:06;;;;;;;33.30;31.35;;;22.70;99.90;;;;;;5044156;28;20060;-76
2023/09/05 08:44:38;;;;;;;32.92;31.02;;;22.90;99.90;;;;;;5050344;28;20044;-76
2023/09/05 08:47:05;;;;;;;33.45;31.55;;;23.00;99.90;;;;;;5055047;28;20095;-77
2023/09/05 08:49:32;;;;;;;33.22;31.10;;;23.10;99.90;;;;;;5052577;28;20044;-75
2023/09/05 08:52:02;;;;;;;34.20;32.13;;;23.40;99.90;;;;;;5059505;28;20056;-76
2023/09/05 08:54:30;;;;;;;34.33;32.22;;;23.30;99.90;;;;;;5053086;28;20045;-76
2023/09/05 08:56:58;;;;;;;35.08;32.97;;;23.40;99.90;;;;;;5050384;28;20037;-78
2023/09/05 08:59:25;;;;;;;33.75;31.75;;;23.30;99.90;;;;;;5032905;28;20068;-77
2023/09/05 09:01:52;;;;;;;33.42;31.35;;;23.30;99.90;;;;;;5047946;28;20422;-76
2023/09/05 09:04:22;;;;;;;34.05;32.05;;;23.70;99.90;;;;;;5047699;28;20049;-76
2023/09/05 09:06:55;;;;;;;35.20;32.90;;;24.10;99.90;;;;;;5034591;28;20048;-77
2023/09/05 09:09:41;;;;;;;34.55;32.45;;;24.10;99.90;;;;;;5042475;28;20136;-76
2023/09/05 09:12:08;;;;;;;34.03;32.10;;;23.90;99.90;;;;;;5049877;28;20055;-76
2023/09/05 09:14:35;;;;;;;34.60;32.35;;;23.90;99.90;;;;;;5050260;28;20063;-76
2023/09/05 09:17:05;;;;;;;33.15;30.95;;;23.50;99.90;;;;;;5046715;28;20040;-77
2023/09/05 09:19:32;;;;;;;34.40;32.03;;;23.50;99.90;;;;;;5044529;28;20041;-76
2023/09/05 09:22:02;;;;;;;34.70;32.60;;;23.70;99.90;;;;;;5029222;28;20143;-77
2023/09/05 09:24:39;;;;;;;34.55;32.45;;;23.70;99.90;;;;;;5035844;28;20613;-76
2023/09/05 09:27:06;;;;;;;35.10;32.95;;;24.00;99.90;;;;;;5043653;28;20522;-76
2023/09/05 09:29:33;;;;;;;34.25;32.25;;;24.00;99.90;;;;;;5036867;28;20121;-76
2023/09/05 09:32:06;;;;;;;34.22;32.13;;;24.20;99.90;;;;;;5035277;28;20905;-75
2023/09/05 09:34:38;;;;;;;34.60;32.35;;;24.00;99.90;;;;;;5054565;28;20052;-77
2023/09/05 09:37:05;;;;;;;34.78;32.67;;;24.10;99.90;;;;;;5046251;28;20124;-75
2023/09/05 09:39:32;;;;;;;34.03;32.05;;;24.40;99.90;;;;;;5048605;28;20044;-75
2023/09/05 09:42:00;;;;;;;34.33;32.42;;;24.50;99.90;;;;;;5046454;28;20076;-76
2023/09/05 09:44:32;;;;;;;35.20;33.20;;;24.20;99.90;;;;;;5040289;28;20048;-75
2023/09/05 09:47:01;;;;;;;35.78;33.60;;;24.70;99.90;;;;;;5030043;28;20045;-75
2023/09/05 09:49:30;;;;;;;36.30;34.20;;;24.80;99.90;;;;;;5050506;28;20067;-78
2023/09/05 09:52:02;;;;;;;33.97;31.98;;;24.70;99.90;;;;;;5049879;28;20206;-78
2023/09/05 09:54:39;;;;;;;34.88;32.88;;;24.70;99.90;;;;;;5033484;28;20040;-77
2023/09/05 09:57:08;;;;;;;33.47;31.58;;;24.50;99.90;;;;;;5045734;28;20046;-78
2023/09/05 09:59:41;;;;;;;34.67;31.98;;;24.70;99.90;;;;;;5044310;28;20041;-78
2023/09/05 10:02:09;;;;;;;35.45;33.50;;;24.70;99.90;;;;;;5027507;28;20049;-76
2023/09/05 10:04:42;;;;;;;35.13;33.20;;;24.90;99.90;;;;;;5034115;28;20051;-76
2023/09/05 10:07:16;;;;;;;34.83;32.80;;;25.20;99.90;;;;;;5042599;28;20052;-76
2023/09/05 10:09:44;;;;;;;33.75;31.85;;;25.40;99.90;;;;;;5049041;28;20514;-75
2023/09/05 10:12:13;;;;;;;34.30;32.28;;;25.30;99.90;;;;;;5044328;28;20672;-77
2023/09/05 10:14:41;;;;;;;33.17;31.08;;;25.60;99.90;;;;;;5051000;28;20699;-75
2023/09/05 10:17:09;;;;;;;35.28;33.28;;;25.20;99.90;;;;;;5042625;28;20048;-77
2023/09/05 10:19:38;;;;;;;35.05;32.95;;;25.50;99.90;;;;;;5042696;28;20556;-76
2023/09/05 10:22:06;;;;;;;35.33;33.03;;;25.30;99.90;;;;;;5045934;28;20067;-75
2023/09/05 10:24:35;;;;;;;34.92;32.72;;;25.40;99.90;;;;;;5044318;28;20055;-74
2023/09/05 10:27:03;;;;;;;34.45;32.33;;;25.60;99.90;;;;;;5047572;28;20048;-74
2023/09/05 10:29:44;;;;;;;34.30;32.25;;;25.80;99.90;;;;;;5031331;28;20507;-76
2023/09/05 10:32:14;;;;;;;35.00;32.80;;;25.80;99.90;;;;;;5044403;28;20056;-76
2023/09/05 10:34:47;;;;;;;35.03;32.85;;;25.90;99.90;;;;;;5034841;28;20497;-75
2023/09/05 10:37:38;;;;;;;34.95;32.83;;;26.10;99.90;;;;;;5026927;28;20041;-75
2023/09/05 10:40:07;;;;;;;36.10;33.92;;;26.00;99.90;;;;;;5047462;28;20060;-76
2023/09/05 10:42:41;;;;;;;35.97;33.78;;;25.80;99.90;;;;;;5033942;28;20648;-76
2023/09/05 10:45:18;;;;;;;36.15;33.67;;;26.10;99.90;;;;;;5048127;28;20166;-74
2023/09/05 10:47:45;;;;;;;34.78;32.78;;;26.40;99.90;;;;;;5038260;28;20048;-77
2023/09/05 10:50:15;;;;;;;36.40;34.20;;;26.60;99.90;;;;;;5026707;28;20044;-76
2023/09/05 10:52:42;;;;;;;37.50;35.08;;;26.10;99.90;;;;;;5034153;28;20037;-75
2023/09/05 10:55:31;;;;;;;36.85;34.67;;;26.10;99.90;;;;;;5042281;28;20397;-76
2023/09/05 10:57:59;;;;;;;37.28;34.88;;;26.20;99.90;;;;;;5017838;28;20044;-74
2023/09/05 11:00:29;;;;;;;33.67;31.35;;;26.30;99.90;;;;;;5027594;28;20144;-75
2023/09/05 11:03:12;;;;;;;34.70;32.30;;;26.30;99.90;;;;;;5018044;28;20135;-75
2023/09/05 11:05:47;;;;;;;35.08;32.88;;;26.30;99.90;;;;;;5048932;28;20127;-75
2023/09/05 11:08:22;;;;;;;36.65;34.13;;;26.50;99.90;;;;;;5046401;28;20048;-75
2023/09/05 11:10:55;;;;;;;34.63;32.53;;;26.60;99.90;;;;;;5046496;28;20036;-75
2023/09/05 11:13:21;;;;;;;34.72;32.63;;;26.50;99.90;;;;;;5036747;28;20522;-75
2023/09/05 11:15:56;;;;;;;34.25;32.05;;;26.60;99.90;;;;;;5054294;28;20121;-75
2023/09/05 11:18:23;;;;;;;34.70;32.63;;;26.90;99.90;;;;;;5044439;28;20040;-75
2023/09/05 11:20:50;;;;;;;34.63;32.22;;;26.90;99.90;;;;;;5042956;28;20617;-75
2023/09/05 11:23:22;;;;;;;34.80;32.70;;;26.70;99.90;;;;;;5047663;28;20137;-78
2023/09/05 11:25:50;;;;;;;34.28;32.28;;;26.80;99.90;;;;;;5055184;28;20049;-77
2023/09/05 11:28:17;;;;;;;34.35;32.35;;;27.10;99.90;;;;;;5023172;28;20059;-77
2023/09/05 11:30:45;;;;;;;35.85;33.58;;;27.10;99.90;;;;;;5009866;28;20045;-77
2023/09/05 11:33:14;;;;;;;35.30;33.30;;;27.20;99.90;;;;;;5030398;28;20048;-77
2023/09/05 11:35:46;;;;;;;35.17;33.17;;;27.50;99.90;;;;;;5037089;28;20120;-77
2023/09/05 11:38:13;;;;;;;34.72;32.72;;;27.10;99.90;;;;;;5047064;28;21582;-77
2023/09/05 11:40:49;;;;;;;35.35;33.03;;;27.00;99.90;;;;;;5057349;28;20141;-77
2023/09/05 11:43:15;;;;;;;35.53;33.42;;;27.20;99.90;;;;;;5036987;28;20052;-78
2023/09/05 11:45:45;;;;;;;34.80;32.80;;;27.40;99.90;;;;;;5060080;28;20056;-78
2023/09/05 11:48:17;;;;;;;35.40;33.30;;;27.30;99.90;;;;;;5054816;28;20045;-79
2023/09/05 11:50:45;;;;;;;35.65;33.45;;;27.30;99.90;;;;;;5064934;28;20037;-78
2023/09/05 11:53:15;;;;;;;35.45;33.35;;;27.10;99.90;;;;;;5057604;28;20075;-79
2023/09/05 11:55:42;;;;;;;36.17;34.08;;;27.20;99.90;;;;;;5073134;28;20071;-78
2023/09/05 11:58:11;;;;;;;35.80;33.72;;;27.40;99.90;;;;;;5065676;28;20052;-77
2023/09/05 12:00:44;;;;;;;35.30;33.30;;;27.40;99.90;;;;;;5053503;28;20044;-76
2023/09/05 12:03:15;;;;;;;34.33;32.13;;;27.20;99.90;;;;;;5039074;28;20664;-78
2023/09/05 12:05:43;;;;;;;35.13;32.75;;;27.40;99.90;;;;;;5049370;28;20116;-76
2023/09/05 12:08:09;;;;;;;34.78;32.75;;;27.40;99.90;;;;;;5044608;28;20641;-77
2023/09/05 12:10:55;;;;;;;37.15;34.88;;;27.70;99.90;;;;;;5052486;28;20121;-79
2023/09/05 12:13:39;;;;;;;37.33;35.13;;;27.70;99.90;;;;;;5061413;28;20044;-77
2023/09/05 12:16:07;;;;;;;36.65;34.45;;;27.30;99.90;;;;;;5062108;28;20135;-76
2023/09/05 12:18:36;;;;;;;36.20;33.75;;;27.30;99.90;;;;;;5030847;28;20669;-77
2023/09/05 12:21:03;;;;;;;36.50;34.22;;;27.50;99.90;;;;;;5055113;28;20550;-77
2023/09/05 12:23:38;;;;;;;37.40;34.80;;;27.70;99.90;;;;;;5046126;28;23034;-79
2023/09/05 12:26:06;;;;;;;35.60;33.47;;;27.70;99.90;;;;;;5069305;28;20045;-79
2023/09/05 12:28:35;;;;;;;36.38;34.28;;;27.90;99.90;;;;;;5028142;28;20044;-77
2023/09/05 12:31:10;;;;;;;37.22;34.92;;;28.00;99.90;;;;;;5053889;28;20400;-78
2023/09/05 12:33:37;;;;;;;37.08;34.97;;;27.80;99.90;;;;;;5047689;28;20040;-77
2023/09/05 12:36:04;;;;;;;37.67;35.58;;;27.70;99.90;;;;;;5065907;28;20108;-79